Time;durP1;ratioP1;P1;durP2;ratioP2;P2;SDS_P1;SDS_P2;PMS_P1;PMS_P2;Temp;Humidity;BMP_temperature;BMP_pressure;BME280_temperature;BME280_humidity;BME280_pressure;Samples;Min_cycle;Max_cycle;Signal;HPM_P1;HPM_P2
2021/12/22 00:01:51;;;;;;;33.07;13.07;;;;;;;10.07;38.49;102704.31;5051664;28;20380;-68
2021/12/22 00:04:17;;;;;;;29.67;11.67;;;;;;;10.02;38.15;102701.56;5044292;28;20282;-68
2021/12/22 00:06:43;;;;;;;26.57;12.03;;;;;;;10.04;37.65;102703.34;5048870;28;20312;-68
2021/12/22 00:09:09;;;;;;;29.83;12.00;;;;;;;9.99;37.71;102709.34;5046769;28;20856;-68
2021/12/22 00:11:34;;;;;;;29.43;13.40;;;;;;;10.00;37.99;102700.69;5067106;28;20029;-68
2021/12/22 00:14:00;;;;;;;30.40;12.90;;;;;;;9.79;38.38;102708.00;5046546;28;20060;-69
2021/12/22 00:16:25;;;;;;;33.17;12.50;;;;;;;9.96;37.76;102701.44;5069106;28;20027;-68
2021/12/22 00:18:51;;;;;;;31.03;12.77;;;;;;;9.92;37.98;102702.22;5064132;28;20040;-69
2021/12/22 00:21:16;;;;;;;27.23;11.67;;;;;;;9.86;38.19;102691.63;5060711;28;20103;-68
2021/12/22 00:23:43;;;;;;;31.73;12.90;;;;;;;9.92;37.90;102688.28;5038755;28;20098;-68
2021/12/22 00:26:08;;;;;;;34.53;13.37;;;;;;;9.96;37.83;102682.25;5064889;28;20495;-68
2021/12/22 00:28:33;;;;;;;29.33;11.57;;;;;;;9.93;38.66;102687.44;5043992;28;20275;-69
2021/12/22 00:31:00;;;;;;;28.23;13.03;;;;;;;9.58;39.08;102680.56;5049451;28;20024;-69
2021/12/22 00:33:28;;;;;;;27.20;10.87;;;;;;;9.62;39.01;102681.53;5055496;28;20099;-68
2021/12/22 00:35:53;;;;;;;25.10;11.97;;;;;;;9.94;38.00;102689.19;5063416;28;20282;-68
2021/12/22 00:38:21;;;;;;;30.93;13.10;;;;;;;9.72;38.51;102678.25;5042110;28;20349;-68
2021/12/22 00:40:50;;;;;;;33.50;12.87;;;;;;;9.65;39.01;102672.00;5036885;28;20119;-68
2021/12/22 00:43:17;;;;;;;31.43;11.93;;;;;;;9.54;38.93;102683.94;5034950;28;20311;-69
2021/12/22 00:45:42;;;;;;;31.63;12.53;;;;;;;9.79;39.00;102676.69;5040473;28;20278;-68
2021/12/22 00:48:09;;;;;;;30.60;14.23;;;;;;;9.77;38.38;102676.66;5066036;28;20310;-68
2021/12/22 00:50:37;;;;;;;29.83;11.83;;;;;;;10.10;37.90;102672.13;5050311;28;20027;-68
2021/12/22 00:53:04;;;;;;;34.00;12.83;;;;;;;9.76;38.46;102679.22;5058039;28;20275;-69
2021/12/22 00:55:30;;;;;;;37.10;11.03;;;;;;;9.75;38.38;102667.00;5040779;28;20313;-69
2021/12/22 00:57:55;;;;;;;28.40;11.90;;;;;;;9.88;38.23;102678.59;5042017;28;20778;-70
2021/12/22 01:00:23;;;;;;;28.43;12.97;;;;;;;10.02;37.95;102677.19;5054280;28;20559;-68
2021/12/22 01:02:48;;;;;;;33.57;12.80;;;;;;;9.88;37.69;102673.38;5052422;28;20116;-68
2021/12/22 01:05:15;;;;;;;25.37;12.37;;;;;;;9.76;38.76;102677.47;5050762;28;20282;-69
2021/12/22 01:07:43;;;;;;;28.23;11.47;;;;;;;9.59;38.85;102677.09;5071240;28;20527;-68
2021/12/22 01:10:10;;;;;;;30.70;12.43;;;;;;;9.65;38.34;102679.84;5050941;28;20287;-68
2021/12/22 01:12:35;;;;;;;31.97;12.50;;;;;;;9.87;37.82;102685.56;5047206;28;20290;-68
2021/12/22 01:15:01;;;;;;;32.00;12.97;;;;;;;9.75;38.08;102693.13;5069150;28;20293;-69
2021/12/22 01:17:34;;;;;;;30.57;13.00;;;;;;;9.68;38.37;102693.00;5052131;28;20023;-68
2021/12/22 01:20:06;;;;;;;;;;;;;;;9.96;38.06;102693.63;5071539;28;20290;-68
2021/12/22 01:25:08;;;;;;;35.33;13.53;;;;;;;9.75;37.96;102698.34;5064615;28;20032;-69
2021/12/22 01:27:39;;;;;;;31.23;12.57;;;;;;;9.81;38.00;102698.50;5071316;28;20286;-68
2021/12/22 01:30:21;;;;;;;33.17;12.10;;;;;;;9.81;38.03;102701.13;5070450;28;20793;-69
2021/12/22 01:32:49;;;;;;;31.60;11.68;;;;;;;9.75;37.20;102690.50;5052338;28;20333;-69
2021/12/22 01:35:16;;;;;;;32.07;12.60;;;;;;;9.64;37.74;102687.66;5037340;28;20043;-68
2021/12/22 01:37:42;;;;;;;35.50;14.00;;;;;;;9.60;37.79;102691.94;5038346;28;20283;-68
2021/12/22 01:40:10;;;;;;;35.60;13.77;;;;;;;9.62;37.94;102682.41;5058238;28;20370;-68
2021/12/22 01:42:36;;;;;;;33.70;11.73;;;;;;;9.46;38.34;102691.56;5064574;28;20036;-69
2021/12/22 01:50:37;;;;;;;25.80;11.43;;;;;;;9.58;38.07;102685.78;5061614;28;20090;-69
2021/12/22 01:53:46;;;;;;;28.97;12.60;;;;;;;9.74;37.92;102680.91;5049777;28;20681;-68
2021/12/22 01:56:24;;;;;;;30.70;12.77;;;;;;;9.54;38.13;102677.84;5039584;28;20295;-68
2021/12/22 01:58:53;;;;;;;34.10;13.83;;;;;;;9.58;37.97;102670.13;5043981;28;20294;-68
2021/12/22 02:01:19;;;;;;;35.83;13.60;;;;;;;9.30;38.07;102666.84;5068309;28;20764;-70
2021/12/22 02:03:47;;;;;;;31.17;12.07;;;;;;;9.18;38.37;102663.94;5050144;28;20289;-69
2021/12/22 02:06:14;;;;;;;30.03;12.03;;;;;;;9.37;38.54;102666.97;5050308;28;20650;-69
2021/12/22 02:08:43;;;;;;;36.07;13.10;;;;;;;9.43;38.68;102669.75;5065019;28;20283;-68
2021/12/22 02:11:09;;;;;;;29.90;12.60;;;;;;;9.29;38.61;102667.69;5051321;28;20279;-69
2021/12/22 02:13:38;;;;;;;41.60;12.67;;;;;;;9.22;38.27;102675.31;5049496;28;20274;-68
2021/12/22 02:16:08;;;;;;;28.30;12.73;;;;;;;9.28;38.04;102675.47;5047492;28;20085;-69
2021/12/22 02:18:44;;;;;;;30.13;12.33;;;;;;;9.32;38.57;102667.75;5063276;28;20267;-68
2021/12/22 02:21:09;;;;;;;28.60;13.30;;;;;;;9.42;37.99;102679.28;5042923;28;20291;-69
2021/12/22 02:23:36;;;;;;;29.83;12.23;;;;;;;9.39;38.11;102673.13;5062648;28;20295;-69
2021/12/22 02:26:10;;;;;;;35.13;12.87;;;;;;;9.39;37.84;102673.13;5048411;28;20370;-68
2021/12/22 02:28:41;;;;;;;28.43;13.13;;;;;;;9.52;37.25;102677.81;5033062;28;20282;-69
2021/12/22 02:31:06;;;;;;;32.77;12.90;;;;;;;9.12;38.36;102677.72;5057737;28;20689;-68
2021/12/22 02:33:36;;;;;;;27.23;12.47;;;;;;;9.26;38.45;102678.06;5035522;28;20279;-68
2021/12/22 02:38:31;;;;;;;32.20;11.50;;;;;;;9.05;38.18;102677.50;5054933;28;20322;-68
2021/12/22 02:40:57;;;;;;;31.43;11.57;;;;;;;9.38;38.08;102687.03;5043567;28;20305;-69
2021/12/22 02:43:24;;;;;;;31.90;12.13;;;;;;;9.03;38.91;102680.06;5061011;28;20774;-68
2021/12/22 02:45:51;;;;;;;32.83;13.27;;;;;;;9.07;38.72;102688.88;5064022;28;20028;-68
2021/12/22 02:48:17;;;;;;;30.27;12.13;;;;;;;8.99;38.58;102691.28;5037480;28;20284;-69
2021/12/22 02:50:43;;;;;;;26.10;11.80;;;;;;;9.26;38.54;102688.50;5038977;28;20294;-68
2021/12/22 02:53:12;;;;;;;27.03;11.33;;;;;;;9.17;38.43;102701.31;5043523;28;20552;-68
2021/12/22 02:58:50;;;;;;;30.30;11.93;;;;;;;9.11;38.84;102698.56;5018993;28;20642;-68
2021/12/22 03:02:03;;;;;;;27.07;11.17;;;;;;;9.27;38.16;102703.31;5062237;28;20303;-68
2021/12/22 03:04:27;;;;;;;28.57;11.60;;;;;;;9.26;38.54;102696.31;5059576;28;20425;-68
2021/12/22 03:06:58;;;;;;;28.80;11.90;;;;;;;9.20;38.67;102696.16;5040379;28;20313;-69
2021/12/22 03:09:29;;;;;;;35.10;12.90;;;;;;;9.26;37.66;102693.72;5051973;28;20283;-68
2021/12/22 03:11:57;;;;;;;31.23;11.67;;;;;;;9.14;38.05;102693.41;5050942;28;20319;-68
2021/12/22 03:14:24;;;;;;;33.83;13.30;;;;;;;9.04;38.52;102686.16;5045654;28;20698;-68
2021/12/22 03:16:51;;;;;;;32.03;12.70;;;;;;;9.06;38.29;102689.72;5037801;28;20282;-68
2021/12/22 03:19:19;;;;;;;29.70;11.87;;;;;;;9.22;38.22;102696.19;5045654;28;20287;-68
2021/12/22 03:21:47;;;;;;;33.73;13.87;;;;;;;9.11;38.15;102693.34;5046363;28;20286;-68
2021/12/22 03:24:14;;;;;;;29.77;13.07;;;;;;;9.18;38.35;102684.81;5043961;28;20410;-68
2021/12/22 03:26:44;;;;;;;35.53;12.17;;;;;;;8.66;39.32;102679.97;5043950;28;20650;-68
2021/12/22 03:29:11;;;;;;;28.03;11.33;;;;;;;8.76;39.34;102670.66;5044924;28;20287;-68
2021/12/22 03:31:37;;;;;;;28.47;11.40;;;;;;;8.47;39.71;102669.88;5036815;28;20367;-68
2021/12/22 03:34:03;;;;;;;39.37;12.17;;;;;;;8.56;39.60;102675.38;5042437;28;20374;-68
2021/12/22 03:36:28;;;;;;;35.97;11.60;;;;;;;7.87;40.44;102679.41;5039537;28;20024;-68
2021/12/22 03:38:54;;;;;;;26.40;12.10;;;;;;;8.79;39.73;102669.88;5046991;28;20056;-68
2021/12/22 03:41:20;;;;;;;35.53;12.83;;;;;;;8.47;39.58;102667.28;5037125;28;20481;-68
2021/12/22 03:43:45;;;;;;;29.10;11.93;;;;;;;8.13;40.84;102681.91;5045594;28;20024;-68
2021/12/22 03:46:10;;;;;;;31.53;11.77;;;;;;;8.65;39.97;102662.59;5045943;28;20035;-68
2021/12/22 03:48:36;;;;;;;30.70;11.23;;;;;;;8.16;40.84;102666.38;5048715;28;20112;-69
2021/12/22 03:51:02;;;;;;;29.80;12.27;;;;;;;8.01;41.20;102676.31;5037788;28;20025;-68
2021/12/22 03:53:27;;;;;;;30.30;12.10;;;;;;;8.29;40.84;102665.00;5040508;28;20075;-68
2021/12/22 03:55:53;;;;;;;35.50;12.30;;;;;;;8.28;41.05;102661.53;5044107;28;20321;-68
2021/12/22 03:58:19;;;;;;;27.63;12.17;;;;;;;8.81;39.27;102661.25;5039331;28;20030;-68
2021/12/22 04:00:45;;;;;;;28.33;12.17;;;;;;;8.65;39.73;102657.38;5030922;28;20044;-69
2021/12/22 04:03:16;;;;;;;31.20;11.50;;;;;;;8.03;40.46;102664.25;5038219;28;20287;-68
2021/12/22 04:05:44;;;;;;;29.30;12.33;;;;;;;8.44;40.50;102654.13;5038735;28;20112;-68
2021/12/22 04:08:11;;;;;;;35.20;13.43;;;;;;;9.21;38.46;102652.69;5039960;28;20331;-69
2021/12/22 04:10:36;;;;;;;32.10;11.93;;;;;;;8.90;38.94;102652.81;5048598;28;20279;-68
2021/12/22 04:13:03;;;;;;;34.77;12.67;;;;;;;8.92;39.11;102645.88;5042374;28;20271;-69
2021/12/22 04:15:28;;;;;;;34.37;11.10;;;;;;;8.58;40.04;102645.00;5043435;28;20492;-68
2021/12/22 04:17:55;;;;;;;34.03;12.40;;;;;;;8.65;38.98;102648.66;5039722;28;20373;-68
2021/12/22 04:20:20;;;;;;;29.47;10.80;;;;;;;8.58;39.85;102644.13;5032617;28;20465;-68
2021/12/22 04:22:46;;;;;;;40.23;12.37;;;;;;;8.22;40.35;102640.50;5048025;28;20294;-69
2021/12/22 04:25:20;;;;;;;35.93;12.67;;;;;;;8.92;39.06;102645.03;5036925;28;20020;-69
2021/12/22 04:27:46;;;;;;;32.73;12.43;;;;;;;9.11;38.31;102641.16;5035046;28;20032;-68
2021/12/22 04:30:12;;;;;;;32.40;12.30;;;;;;;8.65;38.64;102633.91;5048088;28;20778;-68
2021/12/22 04:32:37;;;;;;;36.37;12.73;;;;;;;8.85;39.01;102630.94;5050353;28;20281;-69
2021/12/22 04:35:03;;;;;;;33.13;12.13;;;;;;;8.87;38.80;102629.22;5038617;28;20032;-70
2021/12/22 04:37:28;;;;;;;36.87;12.77;;;;;;;8.92;38.50;102635.47;5043120;28;20258;-68
2021/12/22 04:39:54;;;;;;;31.60;12.53;;;;;;;8.88;38.66;102628.41;5041818;28;20418;-68
2021/12/22 04:42:19;;;;;;;30.50;12.20;;;;;;;8.03;40.24;102627.78;5069738;28;20507;-68
2021/12/22 04:44:45;;;;;;;33.30;11.10;;;;;;;8.46;39.64;102623.81;5045573;28;20024;-68
2021/12/22 04:47:11;;;;;;;38.63;12.37;;;;;;;7.79;41.12;102634.91;5042592;28;20029;-68
2021/12/22 04:49:36;;;;;;;25.90;9.97;;;;;;;7.66;41.57;102626.69;5042819;28;20295;-68
2021/12/22 04:52:07;;;;;;;35.73;11.97;;;;;;;8.20;40.84;102618.75;5069298;28;20020;-68
2021/12/22 04:54:42;;;;;;;31.20;11.40;;;;;;;8.40;40.14;102614.06;5040607;28;20028;-68
2021/12/22 04:57:07;;;;;;;33.40;11.03;;;;;;;8.19;40.05;102621.28;5053864;28;20939;-68
2021/12/22 04:59:32;;;;;;;33.63;11.70;;;;;;;8.37;40.14;102616.59;5047275;28;20303;-68
2021/12/22 05:01:58;;;;;;;29.27;11.37;;;;;;;7.92;41.30;102625.72;5063824;28;20476;-69
2021/12/22 05:04:23;;;;;;;28.30;11.47;;;;;;;8.38;40.06;102618.38;5053681;28;20043;-68
2021/12/22 05:06:48;;;;;;;28.87;10.43;;;;;;;8.02;40.68;102620.81;5039864;28;20040;-68
2021/12/22 05:09:14;;;;;;;24.83;9.80;;;;;;;8.12;40.11;102612.44;5045282;28;20033;-68
2021/12/22 05:11:40;;;;;;;37.07;12.37;;;;;;;8.61;39.23;102613.81;5064996;28;20032;-69
2021/12/22 05:14:08;;;;;;;34.20;12.10;;;;;;;8.43;39.76;102610.66;5036046;28;20031;-68
2021/12/22 05:16:33;;;;;;;33.50;11.77;;;;;;;8.86;38.26;102611.84;5050763;28;20332;-68
2021/12/22 05:21:25;;;;;;;34.10;12.27;;;;;;;7.67;41.28;102618.03;5068664;28;20054;-68
2021/12/22 05:23:52;;;;;;;31.67;11.90;;;;;;;7.89;41.07;102604.81;5050885;28;20036;-69
2021/12/22 05:26:18;;;;;;;33.53;11.33;;;;;;;8.30;40.32;102612.06;5053051;28;20266;-68
2021/12/22 05:28:44;;;;;;;35.10;12.90;;;;;;;7.84;40.63;102609.00;5047868;28;20286;-69
2021/12/22 05:31:09;;;;;;;29.80;11.53;;;;;;;7.89;41.05;102606.56;5068329;28;20282;-68
2021/12/22 05:33:35;;;;;;;27.33;11.07;;;;;;;8.06;40.72;102607.91;5050995;28;20166;-68
2021/12/22 05:36:00;;;;;;;38.53;10.47;;;;;;;7.34;41.18;102609.22;5050488;28;20115;-68
2021/12/22 05:38:26;;;;;;;31.47;13.23;;;;;;;7.62;41.21;102610.06;5039814;28;20392;-68
2021/12/22 05:40:52;;;;;;;33.83;12.67;;;;;;;7.68;41.40;102612.88;5040105;28;20037;-68
2021/12/22 05:43:17;;;;;;;39.50;12.17;;;;;;;7.94;40.56;102599.72;5039126;28;20028;-68
2021/12/22 05:45:42;;;;;;;32.57;11.47;;;;;;;7.35;41.55;102611.00;5042432;28;20040;-68
2021/12/22 05:48:08;;;;;;;40.57;12.93;;;;;;;7.72;41.07;102596.53;5046953;28;20036;-68
2021/12/22 05:50:34;;;;;;;40.73;13.03;;;;;;;8.16;39.95;102614.28;5060694;28;20028;-68
2021/12/22 05:52:59;;;;;;;33.10;12.67;;;;;;;8.09;40.38;102612.31;5034966;28;20025;-68
2021/12/22 05:55:24;;;;;;;36.43;14.07;;;;;;;7.43;41.41;102616.44;5039743;28;20479;-68
2021/12/22 05:57:49;;;;;;;38.43;10.60;;;;;;;7.98;40.62;102605.09;5064363;28;20392;-68
2021/12/22 06:00:15;;;;;;;30.67;12.37;;;;;;;8.04;40.56;102606.13;5055263;28;20057;-68
2021/12/22 06:02:41;;;;;;;36.90;13.60;;;;;;;7.53;41.48;102610.69;5066831;28;20066;-68
2021/12/22 06:05:06;;;;;;;35.67;12.63;;;;;;;7.93;40.47;102609.28;5051633;28;20380;-68
2021/12/22 06:07:32;;;;;;;30.03;11.13;;;;;;;8.10;40.10;102603.69;5048375;28;20115;-68
2021/12/22 06:09:57;;;;;;;40.00;12.40;;;;;;;7.50;41.79;102615.81;5038480;28;20028;-68
2021/12/22 06:12:22;;;;;;;38.47;13.20;;;;;;;7.68;41.05;102611.97;5037050;28;20036;-68
2021/12/22 06:14:48;;;;;;;40.00;13.83;;;;;;;7.38;41.97;102620.63;5043729;28;20031;-68
2021/12/22 06:17:14;;;;;;;32.57;12.37;;;;;;;7.13;41.77;102619.84;5063971;28;20029;-68
2021/12/22 06:19:39;;;;;;;30.57;13.13;;;;;;;7.21;42.12;102613.16;5042581;28;20052;-68
2021/12/22 06:22:04;;;;;;;33.90;10.90;;;;;;;7.32;41.75;102605.69;5040024;28;20041;-68
2021/12/22 06:24:30;;;;;;;35.27;12.83;;;;;;;7.51;41.23;102596.72;5062075;28;20036;-68
2021/12/22 06:26:57;;;;;;;48.10;13.60;;;;;;;7.78;40.86;102598.41;5042107;28;20159;-68
2021/12/22 06:29:23;;;;;;;37.77;11.97;;;;;;;7.34;41.95;102600.56;5058109;28;20047;-68
2021/12/22 06:31:49;;;;;;;42.20;13.20;;;;;;;7.02;42.77;102602.97;5068223;28;20279;-68
2021/12/22 06:34:14;;;;;;;40.10;13.23;;;;;;;6.52;43.36;102600.44;5043850;28;20086;-68
2021/12/22 06:36:39;;;;;;;36.00;11.97;;;;;;;7.57;41.22;102596.03;5047664;28;20028;-68
2021/12/22 06:39:05;;;;;;;31.97;11.27;;;;;;;7.62;40.72;102600.56;5046283;28;20028;-68
2021/12/22 06:41:32;;;;;;;31.63;11.13;;;;;;;8.02;39.95;102589.53;5061907;28;20392;-68
2021/12/22 06:43:57;;;;;;;33.10;11.93;;;;;;;8.02;40.18;102595.63;5047631;28;20036;-68
2021/12/22 06:46:23;;;;;;;42.63;12.83;;;;;;;7.36;41.27;102604.06;5057879;28;20290;-68
2021/12/22 06:48:48;;;;;;;35.03;12.07;;;;;;;8.07;40.08;102606.19;5048665;28;20033;-69
2021/12/22 06:51:13;;;;;;;39.20;11.63;;;;;;;7.17;41.59;102616.50;5051196;28;20035;-68
2021/12/22 06:53:39;;;;;;;37.73;11.63;;;;;;;8.00;40.10;102606.88;5044621;28;20170;-69
2021/12/22 06:56:04;;;;;;;50.87;13.40;;;;;;;7.39;41.50;102617.16;5042067;28;20155;-68
2021/12/22 06:58:30;;;;;;;39.43;11.53;;;;;;;7.91;39.97;102603.16;5051956;28;20111;-67
2021/12/22 07:00:56;;;;;;;39.63;12.07;;;;;;;7.19;40.74;102612.22;5039876;28;20032;-68
2021/12/22 07:03:21;;;;;;;32.73;11.87;;;;;;;7.79;39.79;102602.78;5051368;28;20032;-68
2021/12/22 07:05:47;;;;;;;33.20;11.37;;;;;;;7.58;40.43;102609.13;5045813;28;20658;-68
2021/12/22 07:08:13;;;;;;;35.07;13.03;;;;;;;7.62;40.68;102616.19;5050659;28;20066;-68
2021/12/22 07:10:38;;;;;;;32.87;10.83;;;;;;;8.01;40.18;102604.31;5062049;28;20488;-68
2021/12/22 07:13:03;;;;;;;34.57;12.60;;;;;;;7.94;39.83;102603.25;5057971;28;20547;-68
2021/12/22 07:15:29;;;;;;;42.17;13.47;;;;;;;7.58;40.37;102609.13;5045002;28;20028;-68
2021/12/22 07:17:55;;;;;;;43.60;12.23;;;;;;;7.67;40.47;102603.31;5054667;28;20028;-68
2021/12/22 07:20:21;;;;;;;43.93;13.13;;;;;;;7.19;41.81;102608.75;5036835;28;20021;-68
2021/12/22 07:22:47;;;;;;;40.00;12.33;;;;;;;7.05;42.03;102593.56;5036840;28;20293;-68
2021/12/22 07:25:15;;;;;;;31.10;13.20;;;;;;;7.81;40.36;102585.47;5044302;28;20032;-68
2021/12/22 07:27:41;;;;;;;33.97;12.57;;;;;;;7.85;39.90;102587.34;5048042;28;20282;-68
2021/12/22 07:30:07;;;;;;;42.40;12.90;;;;;;;7.90;39.77;102583.16;5035585;28;20372;-68
2021/12/22 07:32:32;;;;;;;44.60;13.40;;;;;;;7.78;40.29;102585.41;5052766;28;20210;-68
2021/12/22 07:35:04;;;;;;;36.10;13.47;;;;;;;7.23;41.39;102593.28;5049745;28;20278;-68
2021/12/22 07:37:43;;;;;;;38.15;11.25;;;;;;;7.62;41.16;102573.63;5040972;28;20400;-68
2021/12/22 07:40:19;;;;;;;39.20;12.37;;;;;;;7.76;40.29;102581.84;5034760;28;20128;-68
2021/12/22 07:42:45;;;;;;;36.83;12.10;;;;;;;7.25;40.98;102581.22;5039067;28;20299;-68
2021/12/22 07:45:11;;;;;;;35.47;11.87;;;;;;;7.73;39.83;102571.34;5046459;28;20283;-68
2021/12/22 07:47:37;;;;;;;35.93;12.83;;;;;;;7.10;41.28;102589.41;5058024;28;20070;-68
2021/12/22 07:50:05;;;;;;;36.43;10.70;;;;;;;6.17;43.30;102590.56;5038236;28;20347;-68
2021/12/22 07:52:30;;;;;;;38.43;13.20;;;;;;;7.25;41.36;102589.03;5059187;28;20369;-68
2021/12/22 07:54:57;;;;;;;35.70;12.33;;;;;;;7.04;41.67;102584.00;5041782;28;20366;-68
2021/12/22 07:57:22;;;;;;;35.40;12.33;;;;;;;6.38;43.39;102590.44;5041904;28;20442;-68
2021/12/22 07:59:48;;;;;;;34.60;11.27;;;;;;;6.42;42.96;102596.63;5040487;28;20302;-67
2021/12/22 08:02:13;;;;;;;45.27;12.57;;;;;;;6.99;42.40;102602.88;5042498;28;20057;-68
2021/12/22 08:04:39;;;;;;;26.73;11.67;;;;;;;7.58;40.87;102598.72;5043412;28;20070;-68
2021/12/22 08:07:04;;;;;;;32.53;11.87;;;;;;;7.63;39.73;102597.09;5066941;28;20029;-68
2021/12/22 08:09:30;;;;;;;39.90;12.70;;;;;;;7.46;40.29;102608.75;5063605;28;20028;-68
2021/12/22 08:11:56;;;;;;;37.50;11.33;;;;;;;7.37;40.44;102603.25;5048829;28;20020;-68
2021/12/22 08:14:23;;;;;;;44.90;12.17;;;;;;;7.33;40.67;102606.56;5068322;28;20033;-68
2021/12/22 08:16:52;;;;;;;40.20;12.53;;;;;;;7.91;40.02;102603.16;5039214;28;20282;-68
2021/12/22 08:19:17;;;;;;;33.83;11.73;;;;;;;8.26;39.01;102598.06;5042831;28;20278;-68
2021/12/22 08:21:44;;;;;;;32.27;12.10;;;;;;;7.98;39.17;102594.69;5046644;28;20294;-68
2021/12/22 08:24:10;;;;;;;43.30;11.20;;;;;;;8.07;40.07;102599.25;5045402;28;20075;-68
2021/12/22 08:26:35;;;;;;;33.37;12.30;;;;;;;7.47;40.28;102605.28;5057712;28;20275;-67
2021/12/22 08:29:01;;;;;;;37.40;12.63;;;;;;;8.11;39.25;102595.91;5057972;28;20545;-69
2021/12/22 08:31:26;;;;;;;33.40;11.80;;;;;;;7.69;40.58;102590.31;5054889;28;20029;-68
2021/12/22 08:33:54;;;;;;;31.67;13.10;;;;;;;7.75;40.48;102585.31;5040972;28;20491;-68
2021/12/22 08:39:05;;;;;;;35.00;12.67;;;;;;;7.85;40.79;102592.53;5064841;28;20266;-68
2021/12/22 08:41:34;;;;;;;30.37;11.43;;;;;;;8.03;39.86;102586.13;5055347;28;20385;-68
2021/12/22 08:44:06;;;;;;;30.63;12.10;;;;;;;7.44;41.87;102586.97;5062711;28;20274;-68
2021/12/22 08:46:32;;;;;;;29.13;11.47;;;;;;;8.38;39.55;102578.38;5038732;28;20366;-69
2021/12/22 08:48:58;;;;;;;31.10;12.20;;;;;;;7.55;40.70;102572.56;5035895;28;20279;-69
2021/12/22 08:51:24;;;;;;;36.10;12.83;;;;;;;8.17;39.65;102574.34;5051260;28;20275;-68
2021/12/22 08:53:51;;;;;;;34.60;12.53;;;;;;;8.47;39.32;102571.72;5051553;28;20075;-68
2021/12/22 08:56:17;;;;;;;35.47;12.93;;;;;;;8.86;38.84;102577.03;5045993;28;20089;-68
2021/12/22 08:58:42;;;;;;;33.93;12.57;;;;;;;8.36;40.21;102569.66;5058658;28;20275;-68
2021/12/22 09:01:08;;;;;;;34.57;12.03;;;;;;;8.55;39.06;102582.34;5047921;28;20035;-69
2021/12/22 09:03:34;;;;;;;30.70;12.53;;;;;;;8.95;38.92;102583.38;5043549;28;20048;-69
2021/12/22 09:06:00;;;;;;;36.67;13.37;;;;;;;8.36;39.06;102580.06;5051156;28;20064;-68
2021/12/22 09:08:25;;;;;;;31.77;11.83;;;;;;;8.46;39.69;102576.91;5046574;28;20024;-69
2021/12/22 09:10:50;;;;;;;31.87;13.03;;;;;;;8.27;40.45;102576.38;5042362;28;20792;-68
2021/12/22 09:13:19;;;;;;;32.57;12.03;;;;;;;7.86;41.92;102578.69;5045403;28;20025;-68
2021/12/22 09:15:44;;;;;;;36.10;13.57;;;;;;;8.46;40.72;102571.69;5053283;28;20033;-69
2021/12/22 09:18:10;;;;;;;30.23;11.97;;;;;;;8.94;39.68;102576.41;5065997;28;21185;-68
2021/12/22 09:20:35;;;;;;;29.00;11.60;;;;;;;8.73;39.72;102586.28;5049573;28;20029;-68
2021/12/22 09:23:00;;;;;;;28.67;13.30;;;;;;;9.17;39.17;102591.72;5048057;28;20124;-68
2021/12/22 09:25:26;;;;;;;32.43;12.77;;;;;;;9.33;39.12;102591.22;5063780;28;20024;-68
2021/12/22 09:27:51;;;;;;;32.47;12.13;;;;;;;9.07;39.38;102587.13;5062506;28;20032;-69
2021/12/22 09:30:17;;;;;;;35.87;12.70;;;;;;;8.79;39.95;102586.44;5049869;28;20127;-68
2021/12/22 09:32:42;;;;;;;35.97;12.77;;;;;;;8.79;40.28;102571.69;5045388;28;20047;-68
2021/12/22 09:35:08;;;;;;;34.20;13.53;;;;;;;9.61;38.80;102576.19;5058471;28;20116;-69
2021/12/22 09:37:34;;;;;;;30.30;11.27;;;;;;;8.30;40.89;102571.25;5048191;28;20467;-69
2021/12/22 09:39:59;;;;;;;31.17;12.63;;;;;;;8.69;40.33;102568.81;5049969;28;20869;-69
2021/12/22 09:42:24;;;;;;;32.17;13.93;;;;;;;9.11;39.76;102571.59;5042805;28;20037;-69
2021/12/22 09:44:50;;;;;;;27.70;12.00;;;;;;;9.51;38.73;102574.22;5042180;28;20025;-69
2021/12/22 09:47:26;;;;;;;34.20;13.07;;;;;;;9.54;39.02;102578.66;5069409;28;20039;-69
2021/12/22 09:52:29;;;;;;;32.27;12.17;;;;;;;9.06;39.18;102580.16;5061133;28;20286;-69
2021/12/22 09:54:59;;;;;;;27.03;11.80;;;;;;;9.83;37.97;102572.28;5046278;28;20310;-69
2021/12/22 09:57:25;;;;;;;34.23;11.80;;;;;;;9.97;38.02;102564.75;5043088;28;20028;-69
2021/12/22 09:59:53;;;;;;;28.30;12.33;;;;;;;9.53;39.32;102569.91;5061070;28;20352;-69
2021/12/22 10:02:20;;;;;;;30.27;12.10;;;;;;;9.37;39.41;102576.53;5044857;28;20314;-69
2021/12/22 10:04:46;;;;;;;34.07;13.33;;;;;;;9.65;38.90;102570.19;5044519;28;20274;-69
2021/12/22 10:07:25;;;;;;;29.80;13.50;;;;;;;9.52;39.11;102560.34;5060232;28;20303;-69
2021/12/22 10:09:52;;;;;;;33.00;11.97;;;;;;;8.35;41.14;102573.09;5038391;28;20326;-69
2021/12/22 10:12:24;;;;;;;32.37;13.63;;;;;;;9.09;39.62;102575.88;5065733;28;20340;-69
2021/12/22 10:15:01;;;;;;;23.70;11.37;;;;;;;9.77;38.53;102566.97;5044315;28;20790;-69
2021/12/22 10:17:44;;;;;;;30.57;12.30;;;;;;;10.22;38.62;102565.25;5045895;28;20294;-69
2021/12/22 10:20:13;;;;;;;28.95;13.23;;;;;;;9.78;38.68;102562.59;5047211;28;20305;-68
2021/12/22 10:22:50;;;;;;;24.80;12.13;;;;;;;9.90;39.07;102562.84;5048064;28;20033;-69
2021/12/22 10:25:19;;;;;;;26.27;12.23;;;;;;;9.57;39.86;102558.69;5045126;28;20478;-69
2021/12/22 10:27:55;;;;;;;24.97;11.27;;;;;;;9.83;39.87;102566.19;5043020;28;20283;-69
2021/12/22 10:30:26;;;;;;;26.53;12.63;;;;;;;10.21;39.20;102563.47;5026231;28;20396;-68
2021/12/22 10:33:06;;;;;;;32.87;12.77;;;;;;;11.19;37.59;102558.19;5049856;28;20073;-68
2021/12/22 10:35:33;;;;;;;27.37;12.33;;;;;;;11.52;37.11;102556.91;5060443;28;20033;-68
2021/12/22 10:38:01;;;;;;;25.60;11.63;;;;;;;10.99;38.36;102561.38;5043454;28;20024;-68
2021/12/22 10:40:29;;;;;;;23.87;11.73;;;;;;;11.03;37.57;102557.94;5041167;28;20127;-68
2021/12/22 10:42:56;;;;;;;24.07;11.07;;;;;;;11.34;37.62;102553.16;5042779;28;20613;-68
2021/12/22 10:45:23;;;;;;;28.00;11.93;;;;;;;11.26;38.09;102556.53;5039114;28;20036;-68
2021/12/22 10:50:36;;;;;;;24.97;10.87;;;;;;;10.92;37.69;102549.06;5061469;28;20036;-68
2021/12/22 10:53:03;;;;;;;25.27;11.67;;;;;;;11.00;37.98;102547.44;5056354;28;20399;-68
2021/12/22 10:55:56;;;;;;;23.00;10.53;;;;;;;11.14;37.27;102542.41;5038934;28;20090;-68
2021/12/22 10:58:23;;;;;;;23.85;10.88;;;;;;;11.52;37.34;102538.56;5034249;28;20042;-68
2021/12/22 11:01:07;;;;;;;23.87;10.63;;;;;;;10.61;38.55;102543.31;5043046;28;20029;-68
2021/12/22 11:03:43;;;;;;;25.87;9.67;;;;;;;11.27;38.20;102534.75;5043036;28;20036;-68
2021/12/22 11:06:13;;;;;;;27.07;11.50;;;;;;;11.61;37.25;102529.94;5033080;28;20717;-68
2021/12/22 11:08:39;;;;;;;22.43;10.93;;;;;;;11.32;37.12;102526.09;5040172;28;20032;-68
2021/12/22 11:11:14;;;;;;;24.80;11.23;;;;;;;11.37;38.12;102527.03;5044281;28;20033;-68
2021/12/22 11:13:40;;;;;;;28.60;11.87;;;;;;;11.31;37.47;102521.72;5054809;28;20020;-68
2021/12/22 11:16:14;;;;;;;22.93;10.50;;;;;;;11.35;38.47;102522.66;5039967;28;20036;-68
2021/12/22 11:18:40;;;;;;;21.03;11.53;;;;;;;11.35;37.71;102513.03;5039288;28;20083;-68
2021/12/22 11:21:21;;;;;;;26.20;11.90;;;;;;;10.34;39.11;102517.53;5043575;28;20040;-68
2021/12/22 11:23:47;;;;;;;22.93;10.63;;;;;;;10.97;38.40;102505.50;5061401;28;20067;-68
2021/12/22 11:26:13;;;;;;;20.47;10.60;;;;;;;10.73;39.06;102502.50;5040837;28;20488;-68
2021/12/22 11:28:39;;;;;;;22.93;11.27;;;;;;;9.64;40.96;102503.16;5066376;28;20024;-69
2021/12/22 11:31:06;;;;;;;24.00;11.10;;;;;;;10.83;39.04;102496.59;5044845;28;20024;-68
2021/12/22 11:33:33;;;;;;;20.27;10.60;;;;;;;10.87;39.21;102490.53;5046666;28;20025;-68
2021/12/22 11:35:59;;;;;;;21.97;11.17;;;;;;;11.26;38.87;102488.47;5071324;28;20020;-68
2021/12/22 11:38:30;;;;;;;19.83;10.30;;;;;;;11.84;37.36;102486.59;5042821;28;20313;-68
2021/12/22 11:41:09;;;;;;;19.90;9.80;;;;;;;12.14;37.22;102479.03;5038008;28;20029;-67
2021/12/22 11:43:39;;;;;;;21.10;10.50;;;;;;;11.71;36.83;102472.44;5054953;28;20109;-68